sensor_id;sensor_type;location;lat;lon;timestamp;temperature;humidity
21823;DHT22;11074;48.596;9.238;2022-10-14T00:00:31;13.50;99.90
21823;DHT22;11074;48.596;9.238;2022-10-14T00:02:58;13.50;99.90
21823;DHT22;11074;48.596;9.238;2022-10-14T00:05:23;13.60;99.90
21823;DHT22;11074;48.596;9.238;2022-10-14T00:07:49;13.60;99.90
21823;DHT22;11074;48.596;9.238;2022-10-14T00:10:15;13.60;99.90
21823;DHT22;11074;48.596;9.238;2022-10-14T00:12:40;13.60;99.90
21823;DHT22;11074;48.596;9.238;2022-10-14T00:15:07;13.50;99.90
21823;DHT22;11074;48.596;9.238;2022-10-14T00:17:33;13.60;99.90
21823;DHT22;11074;48.596;9.238;2022-10-14T00:20:00;13.60;99.90
21823;DHT22;11074;48.596;9.238;2022-10-14T00:22:25;13.70;99.90
21823;DHT22;11074;48.596;9.238;2022-10-14T00:24:51;13.70;99.90
21823;DHT22;11074;48.596;9.238;2022-10-14T00:27:17;13.70;99.90
21823;DHT22;11074;48.596;9.238;2022-10-14T00:29:43;13.70;99.90
21823;DHT22;11074;48.596;9.238;2022-10-14T00:32:08;13.70;99.90
21823;DHT22;11074;48.596;9.238;2022-10-14T00:34:34;13.70;99.90
21823;DHT22;11074;48.596;9.238;2022-10-14T00:37:00;13.70;99.90
21823;DHT22;11074;48.596;9.238;2022-10-14T00:39:26;13.70;99.90
21823;DHT22;11074;48.596;9.238;2022-10-14T00:41:52;13.70;99.90
21823;DHT22;11074;48.596;9.238;2022-10-14T00:46:45;13.60;99.90
21823;DHT22;11074;48.596;9.238;2022-10-14T00:49:24;13.60;99.90
21823;DHT22;11074;48.596;9.238;2022-10-14T00:52:02;13.60;99.90
21823;DHT22;11074;48.596;9.238;2022-10-14T00:55:18;13.60;99.90
21823;DHT22;11074;48.596;9.238;2022-10-14T00:57:29;13.70;99.90
21823;DHT22;11074;48.596;9.238;2022-10-14T01:00:00;13.60;99.90
21823;DHT22;11074;48.596;9.238;2022-10-14T01:02:32;13.60;99.90
21823;DHT22;11074;48.596;9.238;2022-10-14T01:04:59;13.60;99.90
21823;DHT22;11074;48.596;9.238;2022-10-14T01:10:57;13.60;99.90
21823;DHT22;11074;48.596;9.238;2022-10-14T01:13:36;13.60;99.90
21823;DHT22;11074;48.596;9.238;2022-10-14T01:16:36;13.60;99.90
21823;DHT22;11074;48.596;9.238;2022-10-14T01:22:23;13.70;99.90
21823;DHT22;11074;48.596;9.238;2022-10-14T01:24:57;13.60;99.90
21823;DHT22;11074;48.596;9.238;2022-10-14T01:28:07;13.60;99.90
21823;DHT22;11074;48.596;9.238;2022-10-14T01:31:00;13.60;99.90
21823;DHT22;11074;48.596;9.238;2022-10-14T01:33:37;13.60;99.90
21823;DHT22;11074;48.596;9.238;2022-10-14T01:41:44;13.60;99.90
21823;DHT22;11074;48.596;9.238;2022-10-14T01:44:16;13.60;99.90
21823;DHT22;11074;48.596;9.238;2022-10-14T01:46:49;13.60;99.90
21823;DHT22;11074;48.596;9.238;2022-10-14T01:49:31;13.60;99.90
21823;DHT22;11074;48.596;9.238;2022-10-14T01:52:07;13.60;99.90
21823;DHT22;11074;48.596;9.238;2022-10-14T01:54:40;13.60;99.90
21823;DHT22;11074;48.596;9.238;2022-10-14T01:57:12;13.60;99.90
21823;DHT22;11074;48.596;9.238;2022-10-14T01:59:44;13.50;99.90
21823;DHT22;11074;48.596;9.238;2022-10-14T02:02:12;13.50;99.90
21823;DHT22;11074;48.596;9.238;2022-10-14T02:04:38;13.50;99.90
21823;DHT22;11074;48.596;9.238;2022-10-14T02:13:14;13.60;99.90
21823;DHT22;11074;48.596;9.238;2022-10-14T02:24:38;13.60;99.90
21823;DHT22;11074;48.596;9.238;2022-10-14T02:27:12;13.60;99.90
21823;DHT22;11074;48.596;9.238;2022-10-14T02:29:42;13.60;99.90
21823;DHT22;11074;48.596;9.238;2022-10-14T02:32:14;13.60;99.90
21823;DHT22;11074;48.596;9.238;2022-10-14T02:34:46;13.60;99.90
21823;DHT22;11074;48.596;9.238;2022-10-14T02:37:20;13.60;99.90
21823;DHT22;11074;48.596;9.238;2022-10-14T02:39:56;13.60;99.90
21823;DHT22;11074;48.596;9.238;2022-10-14T02:42:27;13.60;99.90
21823;DHT22;11074;48.596;9.238;2022-10-14T02:44:55;13.60;99.90
21823;DHT22;11074;48.596;9.238;2022-10-14T02:47:23;13.60;99.90
21823;DHT22;11074;48.596;9.238;2022-10-14T02:49:50;13.60;99.90
21823;DHT22;11074;48.596;9.238;2022-10-14T02:52:16;13.50;99.90
21823;DHT22;11074;48.596;9.238;2022-10-14T02:54:42;13.50;99.90
21823;DHT22;11074;48.596;9.238;2022-10-14T02:57:08;13.50;99.90
21823;DHT22;11074;48.596;9.238;2022-10-14T02:59:34;13.50;99.90
21823;DHT22;11074;48.596;9.238;2022-10-14T03:01:59;13.50;99.90
21823;DHT22;11074;48.596;9.238;2022-10-14T03:04:25;13.50;99.90
21823;DHT22;11074;48.596;9.238;2022-10-14T03:06:51;13.50;99.90
21823;DHT22;11074;48.596;9.238;2022-10-14T03:09:18;13.50;99.90
21823;DHT22;11074;48.596;9.238;2022-10-14T03:11:44;13.50;99.90
21823;DHT22;11074;48.596;9.238;2022-10-14T03:14:10;13.50;99.90
21823;DHT22;11074;48.596;9.238;2022-10-14T03:16:36;13.50;99.90
21823;DHT22;11074;48.596;9.238;2022-10-14T03:19:02;13.50;99.90
21823;DHT22;11074;48.596;9.238;2022-10-14T03:21:28;13.50;99.90
21823;DHT22;11074;48.596;9.238;2022-10-14T03:23:53;13.50;99.90
21823;DHT22;11074;48.596;9.238;2022-10-14T03:26:19;13.40;99.90
21823;DHT22;11074;48.596;9.238;2022-10-14T03:28:45;13.40;99.90
21823;DHT22;11074;48.596;9.238;2022-10-14T03:31:10;13.40;99.90
21823;DHT22;11074;48.596;9.238;2022-10-14T03:33:36;13.50;99.90
21823;DHT22;11074;48.596;9.238;2022-10-14T03:36:02;13.50;99.90
21823;DHT22;11074;48.596;9.238;2022-10-14T03:38:28;13.50;99.90
21823;DHT22;11074;48.596;9.238;2022-10-14T03:40:54;13.40;99.90
21823;DHT22;11074;48.596;9.238;2022-10-14T03:43:19;13.40;99.90
21823;DHT22;11074;48.596;9.238;2022-10-14T03:45:45;13.40;99.90
21823;DHT22;11074;48.596;9.238;2022-10-14T03:48:11;13.40;99.90
21823;DHT22;11074;48.596;9.238;2022-10-14T03:50:37;13.40;99.90
21823;DHT22;11074;48.596;9.238;2022-10-14T03:53:03;13.40;99.90
21823;DHT22;11074;48.596;9.238;2022-10-14T03:55:28;13.40;99.90
21823;DHT22;11074;48.596;9.238;2022-10-14T03:57:54;13.40;99.90
21823;DHT22;11074;48.596;9.238;2022-10-14T04:00:20;13.50;99.90
21823;DHT22;11074;48.596;9.238;2022-10-14T04:02:46;13.40;99.90
21823;DHT22;11074;48.596;9.238;2022-10-14T04:05:12;13.40;99.90
21823;DHT22;11074;48.596;9.238;2022-10-14T04:07:38;13.40;99.90
21823;DHT22;11074;48.596;9.238;2022-10-14T04:10:05;13.40;99.90
21823;DHT22;11074;48.596;9.238;2022-10-14T04:12:31;13.30;99.90
21823;DHT22;11074;48.596;9.238;2022-10-14T04:14:57;13.30;99.90
21823;DHT22;11074;48.596;9.238;2022-10-14T04:17:23;13.30;99.90
21823;DHT22;11074;48.596;9.238;2022-10-14T04:19:50;13.20;99.90
21823;DHT22;11074;48.596;9.238;2022-10-14T04:22:16;13.10;99.90
21823;DHT22;11074;48.596;9.238;2022-10-14T04:24:43;13.10;99.90
21823;DHT22;11074;48.596;9.238;2022-10-14T04:27:09;13.10;99.90
21823;DHT22;11074;48.596;9.238;2022-10-14T04:29:35;13.10;99.90
21823;DHT22;11074;48.596;9.238;2022-10-14T04:32:01;13.20;99.90
21823;DHT22;11074;48.596;9.238;2022-10-14T04:34:27;13.20;99.90
21823;DHT22;11074;48.596;9.238;2022-10-14T04:36:52;13.30;99.90
21823;DHT22;11074;48.596;9.238;2022-10-14T04:39:18;13.40;99.90
21823;DHT22;11074;48.596;9.238;2022-10-14T04:41:44;13.40;99.90
21823;DHT22;11074;48.596;9.238;2022-10-14T04:44:09;13.50;99.90
21823;DHT22;11074;48.596;9.238;2022-10-14T04:46:35;13.50;99.90
21823;DHT22;11074;48.596;9.238;2022-10-14T04:49:01;13.50;99.90
21823;DHT22;11074;48.596;9.238;2022-10-14T04:51:27;13.50;99.90
21823;DHT22;11074;48.596;9.238;2022-10-14T04:53:53;13.60;99.90
21823;DHT22;11074;48.596;9.238;2022-10-14T04:56:18;13.60;99.90
21823;DHT22;11074;48.596;9.238;2022-10-14T04:58:44;13.60;99.90
21823;DHT22;11074;48.596;9.238;2022-10-14T05:01:10;13.60;99.90
21823;DHT22;11074;48.596;9.238;2022-10-14T05:03:37;13.60;99.90
21823;DHT22;11074;48.596;9.238;2022-10-14T05:06:03;13.70;99.90
21823;DHT22;11074;48.596;9.238;2022-10-14T05:08:29;13.70;99.90
21823;DHT22;11074;48.596;9.238;2022-10-14T05:10:54;13.70;99.90
21823;DHT22;11074;48.596;9.238;2022-10-14T05:13:20;13.60;99.90
21823;DHT22;11074;48.596;9.238;2022-10-14T05:15:46;13.60;99.90
21823;DHT22;11074;48.596;9.238;2022-10-14T05:18:12;13.60;99.90
21823;DHT22;11074;48.596;9.238;2022-10-14T05:20:38;13.60;99.90
21823;DHT22;11074;48.596;9.238;2022-10-14T05:23:06;13.60;99.90
21823;DHT22;11074;48.596;9.238;2022-10-14T05:25:32;13.60;99.90
21823;DHT22;11074;48.596;9.238;2022-10-14T05:27:57;13.60;99.90
21823;DHT22;11074;48.596;9.238;2022-10-14T05:30:23;13.60;99.90
21823;DHT22;11074;48.596;9.238;2022-10-14T05:32:49;13.60;99.90
21823;DHT22;11074;48.596;9.238;2022-10-14T05:35:15;13.70;99.90
21823;DHT22;11074;48.596;9.238;2022-10-14T05:37:40;13.60;99.90
21823;DHT22;11074;48.596;9.238;2022-10-14T05:40:07;13.60;99.90
21823;DHT22;11074;48.596;9.238;2022-10-14T05:42:34;13.60;99.90
21823;DHT22;11074;48.596;9.238;2022-10-14T05:44:59;13.60;99.90
21823;DHT22;11074;48.596;9.238;2022-10-14T05:47:25;13.60;99.90
21823;DHT22;11074;48.596;9.238;2022-10-14T05:49:51;13.60;99.90
21823;DHT22;11074;48.596;9.238;2022-10-14T05:52:16;13.70;99.90
21823;DHT22;11074;48.596;9.238;2022-10-14T05:54:42;13.60;99.90
21823;DHT22;11074;48.596;9.238;2022-10-14T05:57:08;13.70;99.90
21823;DHT22;11074;48.596;9.238;2022-10-14T05:59:34;13.70;99.90
21823;DHT22;11074;48.596;9.238;2022-10-14T06:02:00;13.70;99.90
21823;DHT22;11074;48.596;9.238;2022-10-14T06:04:27;13.60;99.90
21823;DHT22;11074;48.596;9.238;2022-10-14T06:06:52;13.70;99.90
21823;DHT22;11074;48.596;9.238;2022-10-14T06:09:18;13.70;99.90
21823;DHT22;11074;48.596;9.238;2022-10-14T06:11:44;13.70;99.90
21823;DHT22;11074;48.596;9.238;2022-10-14T06:14:11;13.70;99.90
21823;DHT22;11074;48.596;9.238;2022-10-14T06:16:37;13.70;99.90
21823;DHT22;11074;48.596;9.238;2022-10-14T06:19:02;13.70;99.90
21823;DHT22;11074;48.596;9.238;2022-10-14T06:21:28;13.70;99.90
21823;DHT22;11074;48.596;9.238;2022-10-14T06:23:54;13.70;99.90
21823;DHT22;11074;48.596;9.238;2022-10-14T06:26:20;13.70;99.90
21823;DHT22;11074;48.596;9.238;2022-10-14T06:28:45;13.80;99.90
21823;DHT22;11074;48.596;9.238;2022-10-14T06:31:11;13.70;99.90
21823;DHT22;11074;48.596;9.238;2022-10-14T06:33:37;13.80;99.90
21823;DHT22;11074;48.596;9.238;2022-10-14T06:36:04;13.80;99.90
21823;DHT22;11074;48.596;9.238;2022-10-14T06:38:31;13.80;99.90
21823;DHT22;11074;48.596;9.238;2022-10-14T06:40:57;13.80;99.90
21823;DHT22;11074;48.596;9.238;2022-10-14T06:43:23;13.80;99.90
21823;DHT22;11074;48.596;9.238;2022-10-14T06:45:48;13.80;99.90
21823;DHT22;11074;48.596;9.238;2022-10-14T06:48:15;13.80;99.90
21823;DHT22;11074;48.596;9.238;2022-10-14T06:50:40;13.90;99.90
21823;DHT22;11074;48.596;9.238;2022-10-14T06:53:06;13.80;99.90
21823;DHT22;11074;48.596;9.238;2022-10-14T06:55:33;13.80;99.90
21823;DHT22;11074;48.596;9.238;2022-10-14T06:57:59;13.90;99.90
21823;DHT22;11074;48.596;9.238;2022-10-14T07:00:25;13.90;99.90
21823;DHT22;11074;48.596;9.238;2022-10-14T07:02:50;13.90;99.90
21823;DHT22;11074;48.596;9.238;2022-10-14T07:05:16;13.90;99.90
21823;DHT22;11074;48.596;9.238;2022-10-14T07:07:42;13.90;99.90
21823;DHT22;11074;48.596;9.238;2022-10-14T07:10:08;13.90;99.90
21823;DHT22;11074;48.596;9.238;2022-10-14T07:12:34;13.90;99.90
21823;DHT22;11074;48.596;9.238;2022-10-14T07:14:59;14.00;99.90
21823;DHT22;11074;48.596;9.238;2022-10-14T07:17:25;13.90;99.90
21823;DHT22;11074;48.596;9.238;2022-10-14T07:19:51;13.90;99.90
21823;DHT22;11074;48.596;9.238;2022-10-14T07:22:16;13.90;99.90
21823;DHT22;11074;48.596;9.238;2022-10-14T07:24:43;14.00;99.90
21823;DHT22;11074;48.596;9.238;2022-10-14T07:27:09;14.00;99.90
21823;DHT22;11074;48.596;9.238;2022-10-14T07:29:36;14.00;99.90
21823;DHT22;11074;48.596;9.238;2022-10-14T07:32:01;14.00;99.90
21823;DHT22;11074;48.596;9.238;2022-10-14T07:34:28;14.00;99.90
21823;DHT22;11074;48.596;9.238;2022-10-14T07:36:53;14.00;99.90
21823;DHT22;11074;48.596;9.238;2022-10-14T07:39:19;14.00;99.90
21823;DHT22;11074;48.596;9.238;2022-10-14T07:41:45;14.00;99.90
21823;DHT22;11074;48.596;9.238;2022-10-14T07:44:11;14.10;99.90
21823;DHT22;11074;48.596;9.238;2022-10-14T07:46:41;14.10;99.90
21823;DHT22;11074;48.596;9.238;2022-10-14T07:49:13;14.10;99.90
21823;DHT22;11074;48.596;9.238;2022-10-14T07:51:44;14.20;99.90
21823;DHT22;11074;48.596;9.238;2022-10-14T07:54:14;14.10;99.90
21823;DHT22;11074;48.596;9.238;2022-10-14T07:56:45;14.10;99.90
21823;DHT22;11074;48.596;9.238;2022-10-14T07:59:14;14.10;99.90
21823;DHT22;11074;48.596;9.238;2022-10-14T08:01:40;14.20;99.90
21823;DHT22;11074;48.596;9.238;2022-10-14T08:04:07;14.20;99.90
21823;DHT22;11074;48.596;9.238;2022-10-14T08:06:35;14.20;99.90
21823;DHT22;11074;48.596;9.238;2022-10-14T08:09:03;14.20;99.90
21823;DHT22;11074;48.596;9.238;2022-10-14T08:11:30;14.30;99.90
21823;DHT22;11074;48.596;9.238;2022-10-14T08:13:57;14.30;99.90
21823;DHT22;11074;48.596;9.238;2022-10-14T08:16:29;14.40;99.90
21823;DHT22;11074;48.596;9.238;2022-10-14T08:18:58;14.40;99.90
21823;DHT22;11074;48.596;9.238;2022-10-14T08:21:26;14.40;99.90
21823;DHT22;11074;48.596;9.238;2022-10-14T08:23:52;14.40;99.90
21823;DHT22;11074;48.596;9.238;2022-10-14T08:26:33;14.40;99.90
21823;DHT22;11074;48.596;9.238;2022-10-14T08:29:02;14.40;99.90
21823;DHT22;11074;48.596;9.238;2022-10-14T08:31:29;14.40;99.90
21823;DHT22;11074;48.596;9.238;2022-10-14T08:33:56;14.40;99.90
21823;DHT22;11074;48.596;9.238;2022-10-14T08:36:22;14.50;99.90
21823;DHT22;11074;48.596;9.238;2022-10-14T08:38:49;14.50;99.90
21823;DHT22;11074;48.596;9.238;2022-10-14T08:44:21;14.50;99.90
21823;DHT22;11074;48.596;9.238;2022-10-14T08:46:52;14.50;99.90
21823;DHT22;11074;48.596;9.238;2022-10-14T08:52:12;14.60;99.90
21823;DHT22;11074;48.596;9.238;2022-10-14T08:54:50;14.60;99.90
21823;DHT22;11074;48.596;9.238;2022-10-14T08:57:22;14.70;99.90
21823;DHT22;11074;48.596;9.238;2022-10-14T08:59:51;14.70;99.90
21823;DHT22;11074;48.596;9.238;2022-10-14T09:05:01;14.80;99.90
21823;DHT22;11074;48.596;9.238;2022-10-14T09:07:30;14.80;99.90
21823;DHT22;11074;48.596;9.238;2022-10-14T09:10:02;14.90;99.90
21823;DHT22;11074;48.596;9.238;2022-10-14T09:12:33;14.90;99.90
21823;DHT22;11074;48.596;9.238;2022-10-14T09:17:39;14.90;99.90
21823;DHT22;11074;48.596;9.238;2022-10-14T09:20:16;15.00;99.90
21823;DHT22;11074;48.596;9.238;2022-10-14T09:22:55;15.00;99.90
21823;DHT22;11074;48.596;9.238;2022-10-14T09:25:27;15.00;99.90
21823;DHT22;11074;48.596;9.238;2022-10-14T09:27:57;15.00;99.90
21823;DHT22;11074;48.596;9.238;2022-10-14T09:30:23;15.10;99.90
21823;DHT22;11074;48.596;9.238;2022-10-14T09:32:50;15.20;99.90
21823;DHT22;11074;48.596;9.238;2022-10-14T09:35:23;15.20;99.90
21823;DHT22;11074;48.596;9.238;2022-10-14T09:37:51;15.30;99.90
21823;DHT22;11074;48.596;9.238;2022-10-14T09:40:30;15.30;99.90
21823;DHT22;11074;48.596;9.238;2022-10-14T09:46:00;15.40;99.90
21823;DHT22;11074;48.596;9.238;2022-10-14T09:51:16;15.50;99.90
21823;DHT22;11074;48.596;9.238;2022-10-14T09:53:55;15.60;99.90
21823;DHT22;11074;48.596;9.238;2022-10-14T09:56:32;15.70;99.90
21823;DHT22;11074;48.596;9.238;2022-10-14T09:59:03;15.70;99.90
21823;DHT22;11074;48.596;9.238;2022-10-14T10:01:40;15.80;99.90
21823;DHT22;11074;48.596;9.238;2022-10-14T10:04:39;15.80;99.90
21823;DHT22;11074;48.596;9.238;2022-10-14T10:07:27;15.90;99.90
21823;DHT22;11074;48.596;9.238;2022-10-14T10:09:59;16.00;99.90
21823;DHT22;11074;48.596;9.238;2022-10-14T10:12:33;16.00;99.90
21823;DHT22;11074;48.596;9.238;2022-10-14T10:15:02;16.10;99.90
21823;DHT22;11074;48.596;9.238;2022-10-14T10:17:32;16.20;99.90
21823;DHT22;11074;48.596;9.238;2022-10-14T10:20:27;16.20;99.90
21823;DHT22;11074;48.596;9.238;2022-10-14T10:23:23;16.30;99.90
21823;DHT22;11074;48.596;9.238;2022-10-14T10:25:50;16.30;99.90
21823;DHT22;11074;48.596;9.238;2022-10-14T10:28:22;16.40;99.90
21823;DHT22;11074;48.596;9.238;2022-10-14T10:37:28;16.40;99.90
21823;DHT22;11074;48.596;9.238;2022-10-14T10:48:56;16.60;99.90
21823;DHT22;11074;48.596;9.238;2022-10-14T10:55:00;16.60;99.90
21823;DHT22;11074;48.596;9.238;2022-10-14T11:00:22;16.60;99.90
21823;DHT22;11074;48.596;9.238;2022-10-14T11:05:43;16.60;99.90
21823;DHT22;11074;48.596;9.238;2022-10-14T11:08:17;16.60;99.90
21823;DHT22;11074;48.596;9.238;2022-10-14T11:11:44;16.60;99.90
21823;DHT22;11074;48.596;9.238;2022-10-14T11:17:30;16.60;99.90
21823;DHT22;11074;48.596;9.238;2022-10-14T11:23:27;16.60;99.90
21823;DHT22;11074;48.596;9.238;2022-10-14T11:35:44;16.50;99.90
21823;DHT22;11074;48.596;9.238;2022-10-14T11:38:37;16.50;99.90
21823;DHT22;11074;48.596;9.238;2022-10-14T11:41:41;16.50;99.90
21823;DHT22;11074;48.596;9.238;2022-10-14T11:44:31;16.50;99.90
21823;DHT22;11074;48.596;9.238;2022-10-14T11:47:14;16.60;99.90
21823;DHT22;11074;48.596;9.238;2022-10-14T11:49:52;16.60;99.90
21823;DHT22;11074;48.596;9.238;2022-10-14T11:52:30;16.60;99.90
21823;DHT22;11074;48.596;9.238;2022-10-14T11:55:05;16.70;99.90
21823;DHT22;11074;48.596;9.238;2022-10-14T11:57:44;16.70;99.90
21823;DHT22;11074;48.596;9.238;2022-10-14T12:00:16;16.80;99.90
21823;DHT22;11074;48.596;9.238;2022-10-14T12:14:19;17.00;99.90
21823;DHT22;11074;48.596;9.238;2022-10-14T12:16:50;17.10;99.90
21823;DHT22;11074;48.596;9.238;2022-10-14T12:19:27;17.10;99.90
21823;DHT22;11074;48.596;9.238;2022-10-14T12:22:11;17.20;99.90
21823;DHT22;11074;48.596;9.238;2022-10-14T12:24:56;17.20;99.90
21823;DHT22;11074;48.596;9.238;2022-10-14T12:27:28;17.20;99.90
21823;DHT22;11074;48.596;9.238;2022-10-14T12:29:55;17.20;99.90
21823;DHT22;11074;48.596;9.238;2022-10-14T12:32:26;17.20;99.90
21823;DHT22;11074;48.596;9.238;2022-10-14T12:34:55;17.20;99.90
21823;DHT22;11074;48.596;9.238;2022-10-14T12:42:35;17.10;99.90
21823;DHT22;11074;48.596;9.238;2022-10-14T12:45:22;17.10;99.90
21823;DHT22;11074;48.596;9.238;2022-10-14T12:48:15;17.10;99.90
21823;DHT22;11074;48.596;9.238;2022-10-14T12:50:46;17.10;99.90
21823;DHT22;11074;48.596;9.238;2022-10-14T12:55:55;17.10;99.90
21823;DHT22;11074;48.596;9.238;2022-10-14T12:58:33;17.10;99.90
21823;DHT22;11074;48.596;9.238;2022-10-14T13:01:20;17.10;99.90
21823;DHT22;11074;48.596;9.238;2022-10-14T13:03:51;17.00;99.90
21823;DHT22;11074;48.596;9.238;2022-10-14T13:06:42;17.10;99.90
21823;DHT22;11074;48.596;9.238;2022-10-14T13:14:28;17.10;99.90
21823;DHT22;11074;48.596;9.238;2022-10-14T13:16:58;17.20;99.90
21823;DHT22;11074;48.596;9.238;2022-10-14T13:22:01;17.20;99.90
21823;DHT22;11074;48.596;9.238;2022-10-14T13:24:29;17.20;99.90
21823;DHT22;11074;48.596;9.238;2022-10-14T13:30:12;17.30;99.90
21823;DHT22;11074;48.596;9.238;2022-10-14T13:32:52;17.20;99.90
21823;DHT22;11074;48.596;9.238;2022-10-14T13:35:29;17.10;99.90
21823;DHT22;11074;48.596;9.238;2022-10-14T13:43:21;17.20;99.90
21823;DHT22;11074;48.596;9.238;2022-10-14T13:48:43;17.10;99.90
21823;DHT22;11074;48.596;9.238;2022-10-14T13:56:28;17.20;99.90
21823;DHT22;11074;48.596;9.238;2022-10-14T13:58:56;17.30;99.90
21823;DHT22;11074;48.596;9.238;2022-10-14T14:01:26;17.30;99.90
21823;DHT22;11074;48.596;9.238;2022-10-14T14:03:57;17.30;99.90
21823;DHT22;11074;48.596;9.238;2022-10-14T14:06:24;17.20;99.90
21823;DHT22;11074;48.596;9.238;2022-10-14T14:09:03;17.20;99.90
21823;DHT22;11074;48.596;9.238;2022-10-14T14:11:35;17.20;99.90
21823;DHT22;11074;48.596;9.238;2022-10-14T14:14:05;17.20;99.90
21823;DHT22;11074;48.596;9.238;2022-10-14T14:16:41;17.30;99.90
21823;DHT22;11074;48.596;9.238;2022-10-14T14:19:31;17.30;99.90
21823;DHT22;11074;48.596;9.238;2022-10-14T14:22:25;17.20;99.90
21823;DHT22;11074;48.596;9.238;2022-10-14T14:25:08;17.20;99.90
21823;DHT22;11074;48.596;9.238;2022-10-14T14:27:45;17.10;99.90
21823;DHT22;11074;48.596;9.238;2022-10-14T14:30:34;17.10;99.90
21823;DHT22;11074;48.596;9.238;2022-10-14T14:33:05;17.10;99.90
21823;DHT22;11074;48.596;9.238;2022-10-14T14:35:35;17.10;99.90
21823;DHT22;11074;48.596;9.238;2022-10-14T14:38:01;17.10;99.90
21823;DHT22;11074;48.596;9.238;2022-10-14T14:40:28;17.00;99.90
21823;DHT22;11074;48.596;9.238;2022-10-14T14:43:00;17.00;99.90
21823;DHT22;11074;48.596;9.238;2022-10-14T14:45:30;17.00;99.90
21823;DHT22;11074;48.596;9.238;2022-10-14T14:48:05;17.00;99.90
21823;DHT22;11074;48.596;9.238;2022-10-14T14:50:41;17.10;99.90
21823;DHT22;11074;48.596;9.238;2022-10-14T14:53:26;17.10;99.90
21823;DHT22;11074;48.596;9.238;2022-10-14T14:55:59;17.10;99.90
21823;DHT22;11074;48.596;9.238;2022-10-14T14:58:37;17.10;99.90
21823;DHT22;11074;48.596;9.238;2022-10-14T15:01:23;17.00;99.90
21823;DHT22;11074;48.596;9.238;2022-10-14T15:03:55;17.00;99.90
21823;DHT22;11074;48.596;9.238;2022-10-14T15:06:28;17.00;99.90
21823;DHT22;11074;48.596;9.238;2022-10-14T15:09:08;17.00;99.90
21823;DHT22;11074;48.596;9.238;2022-10-14T15:11:53;16.90;99.90
21823;DHT22;11074;48.596;9.238;2022-10-14T15:17:29;16.90;99.90
21823;DHT22;11074;48.596;9.238;2022-10-14T15:22:29;16.90;99.90
21823;DHT22;11074;48.596;9.238;2022-10-14T15:33:18;16.80;99.90
21823;DHT22;11074;48.596;9.238;2022-10-14T15:35:58;16.80;99.90
21823;DHT22;11074;48.596;9.238;2022-10-14T15:38:27;16.80;99.90
21823;DHT22;11074;48.596;9.238;2022-10-14T15:40:54;16.70;99.90
21823;DHT22;11074;48.596;9.238;2022-10-14T15:43:25;16.70;99.90
21823;DHT22;11074;48.596;9.238;2022-10-14T15:45:53;16.60;99.90
21823;DHT22;11074;48.596;9.238;2022-10-14T15:48:40;16.60;99.90
21823;DHT22;11074;48.596;9.238;2022-10-14T15:51:16;16.50;99.90
21823;DHT22;11074;48.596;9.238;2022-10-14T15:53:44;16.50;99.90
21823;DHT22;11074;48.596;9.238;2022-10-14T15:56:10;16.40;99.90
21823;DHT22;11074;48.596;9.238;2022-10-14T15:58:36;16.40;99.90
21823;DHT22;11074;48.596;9.238;2022-10-14T16:01:03;16.40;99.90
21823;DHT22;11074;48.596;9.238;2022-10-14T16:03:31;16.30;99.90
21823;DHT22;11074;48.596;9.238;2022-10-14T16:05:58;16.30;99.90
21823;DHT22;11074;48.596;9.238;2022-10-14T16:08:27;16.20;99.90
21823;DHT22;11074;48.596;9.238;2022-10-14T16:10:53;16.20;99.90
21823;DHT22;11074;48.596;9.238;2022-10-14T16:13:19;16.20;99.90
21823;DHT22;11074;48.596;9.238;2022-10-14T16:15:52;16.10;99.90
21823;DHT22;11074;48.596;9.238;2022-10-14T16:18:20;16.10;99.90
21823;DHT22;11074;48.596;9.238;2022-10-14T16:20:49;16.10;99.90
21823;DHT22;11074;48.596;9.238;2022-10-14T16:23:16;16.10;99.90
21823;DHT22;11074;48.596;9.238;2022-10-14T16:25:49;16.10;99.90
21823;DHT22;11074;48.596;9.238;2022-10-14T16:28:16;16.00;99.90
21823;DHT22;11074;48.596;9.238;2022-10-14T16:30:45;16.00;99.90
21823;DHT22;11074;48.596;9.238;2022-10-14T16:33:17;16.00;99.90
21823;DHT22;11074;48.596;9.238;2022-10-14T16:35:49;16.00;99.90
21823;DHT22;11074;48.596;9.238;2022-10-14T16:38:19;16.00;99.90
21823;DHT22;11074;48.596;9.238;2022-10-14T16:40:57;15.90;99.90
21823;DHT22;11074;48.596;9.238;2022-10-14T16:43:24;15.90;99.90
21823;DHT22;11074;48.596;9.238;2022-10-14T16:45:51;15.90;99.90
21823;DHT22;11074;48.596;9.238;2022-10-14T16:48:17;15.90;99.90
21823;DHT22;11074;48.596;9.238;2022-10-14T16:50:51;15.90;99.90
21823;DHT22;11074;48.596;9.238;2022-10-14T16:53:18;15.90;99.90
21823;DHT22;11074;48.596;9.238;2022-10-14T16:56:03;15.80;99.90
21823;DHT22;11074;48.596;9.238;2022-10-14T16:58:49;15.80;99.90
21823;DHT22;11074;48.596;9.238;2022-10-14T17:01:15;15.80;99.90
21823;DHT22;11074;48.596;9.238;2022-10-14T17:03:41;15.80;99.90
21823;DHT22;11074;48.596;9.238;2022-10-14T17:06:06;15.80;99.90
21823;DHT22;11074;48.596;9.238;2022-10-14T17:08:32;15.80;99.90
21823;DHT22;11074;48.596;9.238;2022-10-14T17:10:58;15.80;99.90
21823;DHT22;11074;48.596;9.238;2022-10-14T17:13:24;15.80;99.90
21823;DHT22;11074;48.596;9.238;2022-10-14T17:15:56;15.80;99.90
21823;DHT22;11074;48.596;9.238;2022-10-14T17:18:22;15.80;99.90
21823;DHT22;11074;48.596;9.238;2022-10-14T17:20:48;15.70;99.90
21823;DHT22;11074;48.596;9.238;2022-10-14T17:23:14;15.70;99.90
21823;DHT22;11074;48.596;9.238;2022-10-14T17:25:42;15.70;99.90
21823;DHT22;11074;48.596;9.238;2022-10-14T17:28:08;15.70;99.90
21823;DHT22;11074;48.596;9.238;2022-10-14T17:30:37;15.70;99.90
21823;DHT22;11074;48.596;9.238;2022-10-14T17:33:02;15.70;99.90
21823;DHT22;11074;48.596;9.238;2022-10-14T17:35:28;15.70;99.90
21823;DHT22;11074;48.596;9.238;2022-10-14T17:37:54;15.70;99.90
21823;DHT22;11074;48.596;9.238;2022-10-14T17:40:19;15.70;99.90
21823;DHT22;11074;48.596;9.238;2022-10-14T17:42:45;15.70;99.90
21823;DHT22;11074;48.596;9.238;2022-10-14T17:45:26;15.70;99.90
21823;DHT22;11074;48.596;9.238;2022-10-14T17:47:55;15.70;99.90
21823;DHT22;11074;48.596;9.238;2022-10-14T17:50:22;15.70;99.90
21823;DHT22;11074;48.596;9.238;2022-10-14T17:52:53;15.60;99.90
21823;DHT22;11074;48.596;9.238;2022-10-14T17:55:23;15.50;99.90
21823;DHT22;11074;48.596;9.238;2022-10-14T17:57:49;15.50;99.90
21823;DHT22;11074;48.596;9.238;2022-10-14T18:00:15;15.50;99.90
21823;DHT22;11074;48.596;9.238;2022-10-14T18:02:40;15.60;99.90
21823;DHT22;11074;48.596;9.238;2022-10-14T18:05:06;15.50;99.90
21823;DHT22;11074;48.596;9.238;2022-10-14T18:07:35;15.50;99.90
21823;DHT22;11074;48.596;9.238;2022-10-14T18:10:02;15.50;99.90
21823;DHT22;11074;48.596;9.238;2022-10-14T18:12:29;15.50;99.90
21823;DHT22;11074;48.596;9.238;2022-10-14T18:14:55;15.50;99.90